Time;durP1;ratioP1;P1;durP2;ratioP2;P2;SDS_P1;SDS_P2;PMS_P1;PMS_P2;Temp;Humidity;BMP_temperature;BMP_pressure;BME280_temperature;BME280_humidity;BME280_pressure;Samples;Min_cycle;Max_cycle;Signal;HPM_P1;HPM_P2
2021/07/06 00:00:43;;;;;;;26.73;24.23;;;;;;;;;;2079323;28;20219;-75
2021/07/06 00:01:45;;;;;;;27.10;24.50;;;;;;;-144.27;100.00;69759.91;2087825;28;20437;-75
2021/07/06 00:02:49;;;;;;;27.17;24.57;;;;;;;;;;2088384;28;20227;-75
2021/07/06 00:03:51;;;;;;;26.87;24.37;;;;;;;-144.27;100.00;91518.75;2087570;28;20475;-74
2021/07/06 00:04:59;;;;;;;27.00;24.20;;;;;;;-144.27;100.00;69759.91;2087139;28;20457;-76
2021/07/06 00:06:00;;;;;;;26.30;23.73;;;;;;;;;;2087749;28;20525;-74
2021/07/06 00:07:01;;;;;;;26.50;23.93;;;;;;;;;;2088280;28;20786;-75
2021/07/06 00:08:02;;;;;;;25.13;23.00;;;;;;;-144.27;100.00;69759.91;2088432;28;20532;-75
2021/07/06 00:09:03;;;;;;;27.17;24.47;;;;;;;;;;2088473;28;20230;-75
2021/07/06 00:10:05;;;;;;;25.70;23.27;;;;;;;;;;2088445;28;20453;-76
2021/07/06 00:11:06;;;;;;;26.07;23.50;;;;;;;;;;2087569;28;20313;-75
2021/07/06 00:12:08;;;;;;;26.83;24.33;;;;;;;;;;2078989;28;20452;-75
2021/07/06 00:13:08;;;;;;;27.27;24.67;;;;;;;;;;2078691;28;20231;-75
2021/07/06 00:14:10;;;;;;;27.47;24.93;;;;;;;22.48;100.00;69759.91;2087721;28;20445;-75
2021/07/06 00:15:12;;;;;;;26.83;24.33;;;;;;;;;;2088362;28;20633;-75
2021/07/06 00:16:14;;;;;;;25.80;23.63;;;;;;;;;;2088514;28;20853;-75
2021/07/06 00:17:14;;;;;;;25.47;23.30;;;;;;;;;;2087836;28;20457;-76
2021/07/06 00:18:17;;;;;;;25.53;23.33;;;;;;;;;;2087625;28;20442;-76
2021/07/06 00:19:18;;;;;;;26.63;24.13;;;;;;;;;;2087595;28;20274;-75
2021/07/06 00:20:20;;;;;;;27.63;25.03;;;;;;;;;;2087378;28;20499;-74
2021/07/06 00:21:20;;;;;;;27.33;24.57;;;;;;;;;;2087616;28;20725;-75
2021/07/06 00:22:22;;;;;;;26.60;23.90;;;;;;;;;;2087756;28;20456;-75
2021/07/06 00:23:22;;;;;;;26.77;24.00;;;;;;;;;;2087365;28;20235;-74
2021/07/06 00:24:24;;;;;;;27.40;24.73;;;;;;;;;;2087534;28;20477;-75
2021/07/06 00:25:25;;;;;;;26.07;23.40;;;;;;;;;;2087561;28;20226;-74
2021/07/06 00:26:26;;;;;;;25.60;23.13;;;;;;;;;;2087497;28;20476;-74
2021/07/06 00:27:27;;;;;;;27.33;24.60;;;;;;;-144.27;100.00;69759.91;2079323;28;20227;-74
2021/07/06 00:28:29;;;;;;;27.10;24.30;;;;;;;;;;2087648;28;20927;-74
2021/07/06 00:29:29;;;;;;;26.60;23.90;;;;;;;-144.27;100.00;69759.91;2088285;28;20214;-75
2021/07/06 00:30:31;;;;;;;28.47;25.67;;;;;;;;;;2089933;28;20907;-76
2021/07/06 00:31:31;;;;;;;27.73;25.03;;;;;;;;;;2089945;28;20677;-76
2021/07/06 00:32:33;;;;;;;28.90;26.07;;;;;;;;;;2089191;28;20874;-76
2021/07/06 00:33:35;;;;;;;29.67;26.60;;;;;;;;;;2089036;28;20214;-76
2021/07/06 00:34:37;;;;;;;28.97;25.93;;;;;;;-144.27;100.00;69759.91;2088908;28;20445;-75
2021/07/06 00:35:37;;;;;;;26.30;23.97;;;;;;;22.56;100.00;69759.91;2080359;28;20466;-76
2021/07/06 00:36:39;;;;;;;30.40;26.13;;;;;;;-144.27;83.04;69759.91;2080819;28;20537;-75
2021/07/06 00:37:39;;;;;;;30.03;27.00;;;;;;;;;;2089014;28;20226;-76
2021/07/06 00:38:41;;;;;;;28.67;25.97;;;;;;;;;;2089053;28;20475;-76
2021/07/06 00:39:42;;;;;;;29.33;26.23;;;;;;;-144.27;87.27;69759.91;2089317;28;20237;-76
2021/07/06 00:40:44;;;;;;;29.07;26.13;;;;;;;;;;2089018;28;20524;-76
2021/07/06 00:41:44;;;;;;;29.37;26.57;;;;;;;;;;2080853;28;20219;-75
2021/07/06 00:42:47;;;;;;;29.17;26.23;;;;;;;;;;2089004;28;20449;-75
2021/07/06 00:43:47;;;;;;;29.13;26.33;;;;;;;;;;2088841;28;20218;-76
2021/07/06 00:44:49;;;;;;;29.70;26.80;;;;;;;;;;2089031;28;20528;-75
2021/07/06 00:45:55;;;;;;;30.83;27.77;;;;;;;;;;2089945;28;20765;-77
2021/07/06 00:46:57;;;;;;;30.03;27.13;;;;;;;;;;2088577;28;20453;-75
2021/07/06 00:48:00;;;;;;;30.07;27.23;;;;;;;;;;2088906;28;20491;-75
2021/07/06 00:49:04;;;;;;;29.77;26.87;;;;;;;32.82;100.00;76492.81;2088739;28;20449;-75
2021/07/06 00:50:07;;;;;;;30.00;26.83;;;;;;;-144.27;100.00;-8242.56;2080650;28;20457;-75
2021/07/06 00:51:08;;;;;;;30.63;27.73;;;;;;;;;;2080539;28;20889;-76
2021/07/06 00:52:09;;;;;;;29.47;26.37;;;;;;;;;;2080714;28;21021;-75
2021/07/06 00:53:10;;;;;;;28.87;26.17;;;;;;;;;;2089063;28;20870;-75
2021/07/06 00:54:11;;;;;;;31.03;27.93;;;;;;;22.41;100.00;69759.91;2088784;28;20218;-76
2021/07/06 00:55:13;;;;;;;29.50;26.77;;;;;;;;;;2088968;28;20532;-76
2021/07/06 00:56:13;;;;;;;33.50;26.67;;;;;;;;;;2089067;28;20225;-76
2021/07/06 00:57:15;;;;;;;28.70;25.73;;;;;;;;;;2089906;28;20949;-75
2021/07/06 00:58:16;;;;;;;29.67;26.57;;;;;;;;;;2088698;28;20222;-75
2021/07/06 00:59:19;;;;;;;29.07;26.20;;;;;;;;;;2088907;28;21001;-76
2021/07/06 01:00:21;;;;;;;28.43;25.83;;;;;;;;;;2089687;28;20512;-76
2021/07/06 01:01:22;;;;;;;29.20;26.13;;;;;;;;;;2089326;28;20959;-77
2021/07/06 01:02:23;;;;;;;28.70;25.70;;;;;;;;;;2089582;28;20452;-76
2021/07/06 01:03:25;;;;;;;29.83;26.83;;;;;;;22.56;100.00;69759.91;2089020;28;20528;-76
2021/07/06 01:04:26;;;;;;;30.37;26.80;;;;;;;;;;2088831;28;20222;-76
2021/07/06 01:05:28;;;;;;;29.10;26.50;;;;;;;;;;2089481;28;20453;-75
2021/07/06 01:06:29;;;;;;;28.17;25.33;;;;;;;;;;2088811;28;20544;-76
2021/07/06 01:07:30;;;;;;;30.00;27.07;;;;;;;;;;2088837;28;20449;-76
2021/07/06 01:08:32;;;;;;;27.60;25.20;;;;;;;;;;2089663;28;20225;-76
2021/07/06 01:09:33;;;;;;;28.13;25.43;;;;;;;;;;2089602;28;20441;-75
2021/07/06 01:10:35;;;;;;;29.83;26.87;;;;;;;;;;2088982;28;20473;-75
2021/07/06 01:11:36;;;;;;;27.93;25.23;;;;;;;-144.27;100.00;91112.81;2088730;28;20226;-76
2021/07/06 01:12:37;;;;;;;28.10;25.33;;;;;;;-144.27;100.00;69759.91;2082069;28;20451;-77
2021/07/06 01:13:38;;;;;;;27.90;25.20;;;;;;;;;;2071981;28;20228;-76
2021/07/06 01:14:40;;;;;;;27.07;24.40;;;;;;;;;;2082652;28;20501;-76
2021/07/06 01:15:40;;;;;;;27.27;24.50;;;;;;;;;;2080912;28;20227;-76
2021/07/06 01:16:44;;;;;;;27.93;25.37;;;;;;;;;;2080313;28;20506;-76
2021/07/06 01:17:45;;;;;;;27.23;24.73;;;;;;;;;;2080553;28;20226;-76
2021/07/06 01:18:47;;;;;;;28.10;25.43;;;;;;;;;;2081306;28;20485;-76
2021/07/06 01:19:48;;;;;;;27.20;24.80;;;;;;;;;;2080311;28;20336;-76
2021/07/06 01:20:52;;;;;;;29.23;26.40;;;;;;;-144.27;100.00;69759.91;2080629;28;20496;-75
2021/07/06 01:21:52;;;;;;;29.00;26.20;;;;;;;;;;2086400;28;20896;-76
2021/07/06 01:22:55;;;;;;;27.70;25.17;;;;;;;22.56;100.00;69759.91;2088731;28;20457;-76
2021/07/06 01:23:56;;;;;;;28.03;25.50;;;;;;;;;;2088645;28;20712;-76
2021/07/06 01:24:58;;;;;;;29.63;26.63;;;;;;;;;;2088604;28;20449;-76
2021/07/06 01:26:00;;;;;;;27.73;25.03;;;;;;;;;;2089480;28;20219;-75
2021/07/06 01:27:02;;;;;;;29.13;26.33;;;;;;;;;;2089464;28;20442;-76
2021/07/06 01:28:04;;;;;;;28.97;25.83;;;;;;;;;;2089378;28;20472;-76
2021/07/06 01:29:05;;;;;;;28.97;26.17;;;;;;;;;;2088584;28;20511;-76
2021/07/06 01:30:07;;;;;;;28.17;25.60;;;;;;;;;;2088795;28;20963;-76
2021/07/06 01:31:08;;;;;;;29.30;26.50;;;;;;;-144.27;100.00;69759.91;2088905;28;20944;-75
2021/07/06 01:32:09;;;;;;;29.73;26.73;;;;;;;;;;2088359;28;20461;-76
2021/07/06 01:33:11;;;;;;;29.73;26.93;;;;;;;;;;2088704;28;20469;-75
2021/07/06 01:34:11;;;;;;;30.03;27.13;;;;;;;;;;2089405;28;20696;-76
2021/07/06 01:35:14;;;;;;;29.53;26.73;;;;;;;;;;2089423;28;20808;-76
2021/07/06 01:36:17;;;;;;;31.27;27.90;;;;;;;;;;2088860;28;20626;-76
2021/07/06 01:37:19;;;;;;;31.17;28.17;;;;;;;;;;2088687;28;20792;-76
2021/07/06 01:38:22;;;;;;;29.03;26.20;;;;;;;;;;2088647;28;20860;-76
2021/07/06 01:39:22;;;;;;;29.93;27.03;;;;;;;;;;2088189;28;20914;-76
2021/07/06 01:40:25;;;;;;;27.87;25.47;;;;;;;;;;2088506;28;20445;-76
2021/07/06 01:41:25;;;;;;;29.63;26.77;;;;;;;;;;2087961;28;20230;-75
2021/07/06 01:42:27;;;;;;;30.60;26.73;;;;;;;;;;2089171;28;20481;-76
2021/07/06 01:43:27;;;;;;;29.87;26.73;;;;;;;;;;2088492;28;20701;-75
2021/07/06 01:44:29;;;;;;;28.10;25.50;;;;;;;-144.27;100.00;69759.91;2088678;28;20864;-76
2021/07/06 01:45:30;;;;;;;30.63;26.67;;;;;;;;;;2089127;28;20238;-77
2021/07/06 01:46:32;;;;;;;28.37;25.67;;;;;;;-144.27;100.00;91702.66;2088544;28;21011;-76
2021/07/06 01:47:35;;;;;;;28.90;26.10;;;;;;;;;;2087518;28;20450;-76
2021/07/06 01:48:36;;;;;;;28.97;26.17;;;;;;;;;;2088569;28;20477;-76
2021/07/06 01:49:37;;;;;;;29.80;26.87;;;;;;;-144.27;100.00;69759.91;2082555;28;20831;-76
2021/07/06 01:50:40;;;;;;;29.17;26.13;;;;;;;;;;2080282;28;20670;-76
2021/07/06 01:51:41;;;;;;;28.73;26.00;;;;;;;-144.27;100.00;69759.91;2072158;28;20220;-76
2021/07/06 01:52:43;;;;;;;31.47;26.07;;;;;;;;;;2074708;28;20945;-76
2021/07/06 01:53:45;;;;;;;29.77;26.77;;;;;;;;;;2081390;28;20306;-77
2021/07/06 01:54:47;;;;;;;28.97;25.97;;;;;;;;;;2081366;28;20456;-76
2021/07/06 01:55:49;;;;;;;30.03;26.87;;;;;;;;;;2088472;28;20437;-75
2021/07/06 01:56:50;;;;;;;29.43;26.40;;;;;;;;;;2089247;28;20453;-77
2021/07/06 01:57:51;;;;;;;30.57;27.23;;;;;;;;;;2089105;28;20774;-76
2021/07/06 01:58:53;;;;;;;28.93;26.17;;;;;;;;;;2088927;28;20883;-75
2021/07/06 01:59:53;;;;;;;29.83;26.63;;;;;;;;;;2088270;28;20959;-76
2021/07/06 02:00:57;;;;;;;29.63;26.73;;;;;;;;;;2088405;28;21025;-76
2021/07/06 02:01:57;;;;;;;30.20;27.30;;;;;;;;;;2089205;28;20673;-76
2021/07/06 02:02:59;;;;;;;28.20;25.43;;;;;;;;;;2089167;28;20848;-75
2021/07/06 02:04:00;;;;;;;28.97;26.03;;;;;;;;;;2088507;28;20219;-76
2021/07/06 02:05:04;;;;;;;29.03;26.13;;;;;;;;;;2088382;28;20476;-76
2021/07/06 02:06:06;;;;;;;30.00;26.93;;;;;;;;;;2089051;28;20215;-75
2021/07/06 02:07:06;;;;;;;29.00;26.00;;;;;;;;;;2088079;28;20442;-76
2021/07/06 02:08:08;;;;;;;29.53;26.40;;;;;;;;;;2088387;28;20515;-77
2021/07/06 02:09:10;;;;;;;29.57;26.63;;;;;;;;;;2088515;28;20227;-76
2021/07/06 02:10:12;;;;;;;52.37;27.97;;;;;;;;;;2088242;28;20484;-75
2021/07/06 02:11:14;;;;;;;30.37;27.27;;;;;;;-144.27;100.00;69759.91;2080372;28;20454;-76
2021/07/06 02:12:14;;;;;;;29.73;26.60;;;;;;;;;;2088347;28;20445;-75
2021/07/06 02:13:19;;;;;;;29.57;26.67;;;;;;;189.37;100.00;91340.69;2089207;28;20528;-77
2021/07/06 02:14:20;;;;;;;29.77;26.87;;;;;;;-144.27;100.00;69759.91;2088328;28;20723;-76
2021/07/06 02:15:22;;;;;;;28.80;25.93;;;;;;;;;;2088451;28;20810;-75
2021/07/06 02:16:22;;;;;;;29.73;26.97;;;;;;;;;;2087840;28;20216;-77
2021/07/06 02:17:24;;;;;;;29.57;26.67;;;;;;;;;;2088301;28;20442;-75
2021/07/06 02:18:27;;;;;;;30.23;27.07;;;;;;;;;;2089057;28;20230;-75
2021/07/06 02:19:27;;;;;;;30.10;27.20;;;;;;;;;;2088244;28;20475;-76
2021/07/06 02:20:29;;;;;;;30.50;27.37;;;;;;;;;;2088394;28;20481;-76
2021/07/06 02:21:30;;;;;;;30.10;27.10;;;;;;;;;;2088240;28;20225;-76
2021/07/06 02:22:31;;;;;;;30.17;27.17;;;;;;;;;;2088353;28;20468;-76
2021/07/06 02:23:32;;;;;;;29.60;26.60;;;;;;;;;;2088299;28;20275;-76
2021/07/06 02:24:34;;;;;;;31.50;28.23;;;;;;;;;;2088226;28;20514;-76
2021/07/06 02:25:35;;;;;;;30.40;27.43;;;;;;;;;;2088095;28;20250;-75
2021/07/06 02:26:37;;;;;;;31.03;27.63;;;;;;;;;;2088315;28;20537;-76
2021/07/06 02:27:38;;;;;;;35.20;28.87;;;;;;;;;;2079545;28;20782;-76
2021/07/06 02:28:40;;;;;;;30.03;27.23;;;;;;;22.43;100.00;69759.91;2088304;28;20875;-76
2021/07/06 02:29:41;;;;;;;31.47;28.20;;;;;;;;;;2088156;28;20482;-76
2021/07/06 02:30:43;;;;;;;31.50;28.20;;;;;;;-144.27;100.00;69759.91;2080234;28;20461;-75
2021/07/06 02:31:44;;;;;;;31.20;27.90;;;;;;;-144.27;100.00;69759.91;2088294;28;20970;-76
2021/07/06 02:32:46;;;;;;;31.37;28.43;;;;;;;;;;2088983;28;20791;-75
2021/07/06 02:33:46;;;;;;;30.53;27.70;;;;;;;;;;2089091;28;20563;-75
2021/07/06 02:34:48;;;;;;;30.43;27.70;;;;;;;;;;2088148;28;20470;-75
2021/07/06 02:35:50;;;;;;;32.03;28.73;;;;;;;27.61;100.00;69759.91;2088243;28;20229;-75
2021/07/06 02:36:50;;;;;;;31.17;27.97;;;;;;;-144.27;83.04;69759.91;2088386;28;20445;-76
2021/07/06 02:37:52;;;;;;;30.83;27.87;;;;;;;;;;2079885;28;20874;-76
2021/07/06 02:38:52;;;;;;;30.80;27.73;;;;;;;;;;2081514;28;20317;-76
2021/07/06 02:39:55;;;;;;;29.57;26.77;;;;;;;;;;2080587;28;20462;-76
2021/07/06 02:40:57;;;;;;;30.17;27.27;;;;;;;;;;2080588;28;20231;-76
2021/07/06 02:41:58;;;;;;;29.37;26.53;;;;;;;-144.27;100.00;69759.91;2079748;28;20830;-76
2021/07/06 02:43:00;;;;;;;29.87;27.07;;;;;;;;;;2079749;28;20554;-75
2021/07/06 02:44:00;;;;;;;31.10;28.00;;;;;;;-144.27;100.00;69759.91;2079782;28;20219;-75
2021/07/06 02:45:02;;;;;;;30.53;27.33;;;;;;;;;;2079883;28;20458;-76
2021/07/06 02:46:03;;;;;;;31.27;27.97;;;;;;;-144.27;100.00;94289.88;2080575;28;20306;-76
2021/07/06 02:47:04;;;;;;;31.10;28.00;;;;;;;;;;2079700;28;20442;-76
2021/07/06 02:48:06;;;;;;;31.00;27.90;;;;;;;;;;2071339;28;20220;-76
2021/07/06 02:49:08;;;;;;;30.27;26.87;;;;;;;-144.27;87.52;69759.91;2079447;28;20522;-77
2021/07/06 02:50:09;;;;;;;36.57;27.17;;;;;;;;;;2073157;28;20443;-75
2021/07/06 02:51:14;;;;;;;30.63;27.60;;;;;;;;;;2079869;28;20891;-76
2021/07/06 02:52:14;;;;;;;32.50;29.23;;;;;;;;;;2080584;28;20447;-76
2021/07/06 02:53:16;;;;;;;31.27;28.10;;;;;;;;;;2079766;28;20580;-76
2021/07/06 02:54:16;;;;;;;31.67;28.40;;;;;;;;;;2079787;28;20230;-76
2021/07/06 02:55:19;;;;;;;31.80;28.13;;;;;;;;;;2079716;28;20525;-75
2021/07/06 02:56:21;;;;;;;31.23;27.93;;;;;;;;;;2079682;28;20280;-76
2021/07/06 02:58:38;;;;;;;29.07;26.17;;;;;;;;;;2084160;28;20460;-76
2021/07/06 02:59:39;;;;;;;29.53;26.47;;;;;;;;;;2087991;28;20452;-75
2021/07/06 03:00:40;;;;;;;29.43;26.33;;;;;;;-144.27;100.00;69759.91;2087956;28;20519;-75
2021/07/06 03:01:41;;;;;;;29.20;26.40;;;;;;;;;;2079945;28;20682;-75
2021/07/06 03:02:43;;;;;;;28.97;26.10;;;;;;;;;;2087999;28;20869;-76
2021/07/06 03:03:44;;;;;;;30.60;27.37;;;;;;;;;;2079699;28;20223;-76
2021/07/06 03:04:45;;;;;;;29.10;26.17;;;;;;;;;;2084872;28;20485;-76
2021/07/06 03:05:47;;;;;;;28.70;25.87;;;;;;;;;;2080336;28;20556;-76
2021/07/06 03:06:48;;;;;;;29.40;26.43;;;;;;;;;;2079483;28;21026;-76
2021/07/06 03:07:49;;;;;;;28.03;25.23;;;;;;;-144.27;100.00;69759.91;2079620;28;20458;-75
2021/07/06 03:08:52;;;;;;;29.97;26.97;;;;;;;;;;2079434;28;20458;-76
2021/07/06 03:09:53;;;;;;;28.90;26.20;;;;;;;;;;2085765;28;21048;-76
2021/07/06 03:10:55;;;;;;;30.97;27.00;;;;;;;;;;2088482;28;20897;-75
2021/07/06 03:11:56;;;;;;;29.60;26.43;;;;;;;;;;2087708;28;20242;-76
2021/07/06 03:12:58;;;;;;;29.17;25.67;;;;;;;;;;2087871;28;20457;-77
2021/07/06 03:13:58;;;;;;;28.03;25.23;;;;;;;-144.27;100.00;69759.91;2088560;28;20673;-76
2021/07/06 03:14:59;;;;;;;28.63;25.63;;;;;;;;;;2087760;28;20826;-76
2021/07/06 03:16:01;;;;;;;30.90;27.70;;;;;;;;;;2087891;28;20409;-76
2021/07/06 03:17:01;;;;;;;27.93;25.17;;;;;;;;;;2087986;28;20222;-76
2021/07/06 03:18:05;;;;;;;28.63;25.80;;;;;;;;;;2088672;28;20516;-76
2021/07/06 03:19:06;;;;;;;29.63;26.83;;;;;;;;;;2087871;28;20314;-76
2021/07/06 03:20:10;;;;;;;31.33;27.33;;;;;;;22.56;92.00;69759.91;2088073;28;20441;-76
2021/07/06 03:21:12;;;;;;;29.10;26.40;;;;;;;-144.27;87.27;69759.91;2080563;28;20215;-76
2021/07/06 03:22:12;;;;;;;28.73;25.77;;;;;;;;;;2079540;28;20945;-76
2021/07/06 03:23:14;;;;;;;28.37;25.47;;;;;;;-144.27;100.00;57715.66;2079549;28;20910;-75
2021/07/06 03:24:14;;;;;;;28.67;25.80;;;;;;;;;;2080219;28;20686;-76
2021/07/06 03:25:17;;;;;;;27.63;24.93;;;;;;;;;;2080290;28;20584;-75
2021/07/06 03:26:19;;;;;;;28.37;25.30;;;;;;;-144.27;100.00;69759.91;2080354;28;20234;-75
2021/07/06 03:27:21;;;;;;;28.43;25.83;;;;;;;-144.27;84.87;69759.91;2080194;28;20450;-76
2021/07/06 03:28:23;;;;;;;29.37;26.30;;;;;;;-144.27;100.00;69759.91;2086037;28;20462;-76
2021/07/06 03:29:23;;;;;;;28.40;25.73;;;;;;;;;;2088387;28;20480;-76
2021/07/06 03:30:26;;;;;;;28.33;25.53;;;;;;;;;;2088528;28;20465;-76
2021/07/06 03:31:26;;;;;;;28.63;25.77;;;;;;;;;;2087689;28;20361;-76
2021/07/06 03:32:28;;;;;;;27.50;24.90;;;;;;;-144.27;100.00;69759.91;2087884;28;20505;-76
2021/07/06 03:33:29;;;;;;;27.93;25.43;;;;;;;;;;2088549;28;20567;-75
2021/07/06 03:34:30;;;;;;;28.93;26.23;;;;;;;;;;2087711;28;20466;-76
2021/07/06 03:35:31;;;;;;;28.47;25.77;;;;;;;-144.27;100.00;69759.91;2087640;28;20226;-76
2021/07/06 03:36:32;;;;;;;28.27;25.47;;;;;;;;;;2079509;28;20470;-75
2021/07/06 03:37:33;;;;;;;28.33;25.67;;;;;;;;;;2087740;28;20736;-75
2021/07/06 03:38:34;;;;;;;28.60;25.87;;;;;;;;;;2079517;28;20789;-75
2021/07/06 03:39:35;;;;;;;29.60;26.73;;;;;;;;;;2087745;28;20751;-75
2021/07/06 03:40:37;;;;;;;29.97;27.27;;;;;;;;;;2087795;28;20461;-76
2021/07/06 03:41:39;;;;;;;28.63;25.87;;;;;;;-144.27;0.00;93958.72;2087420;28;20700;-75
2021/07/06 03:42:41;;;;;;;29.40;26.30;;;;;;;;;;2088382;28;20835;-76
2021/07/06 03:43:41;;;;;;;28.80;25.90;;;;;;;-144.27;100.00;94067.91;2087569;28;20446;-75
2021/07/06 03:44:43;;;;;;;28.53;25.53;;;;;;;-144.27;84.87;69759.91;2079417;28;20546;-76
2021/07/06 03:45:44;;;;;;;30.00;26.80;;;;;;;;;;2087518;28;20252;-76
2021/07/06 03:46:45;;;;;;;28.70;26.10;;;;;;;-144.27;100.00;69759.91;2087626;28;20441;-76
2021/07/06 03:47:48;;;;;;;30.43;27.53;;;;;;;;;;2087674;28;20226;-76
2021/07/06 03:48:48;;;;;;;30.77;27.43;;;;;;;;;;2088536;28;20465;-76
2021/07/06 03:49:50;;;;;;;29.63;26.63;;;;;;;-144.27;100.00;69759.91;2087763;28;20450;-76
2021/07/06 03:50:51;;;;;;;30.50;27.50;;;;;;;;;;2087772;28;20567;-75
2021/07/06 03:51:52;;;;;;;30.53;27.43;;;;;;;-144.27;100.00;-8242.56;2088574;28;20485;-75
2021/07/06 03:52:53;;;;;;;32.73;28.70;;;;;;;;;;2088125;28;20674;-76
2021/07/06 03:53:55;;;;;;;35.33;29.00;;;;;;;-144.27;100.00;69759.91;2088393;28;20464;-77
2021/07/06 03:54:56;;;;;;;32.03;28.47;;;;;;;;;;2087608;28;20551;-76
2021/07/06 03:55:57;;;;;;;32.53;28.33;;;;;;;;;;2087780;28;20461;-76
2021/07/06 03:57:00;;;;;;;31.50;28.00;;;;;;;;;;2087614;28;20225;-76
2021/07/06 03:58:02;;;;;;;30.80;27.90;;;;;;;;;;2087514;28;20579;-76
2021/07/06 03:59:02;;;;;;;30.77;27.60;;;;;;;;;;2087552;28;20742;-76
2021/07/06 04:00:06;;;;;;;31.63;28.30;;;;;;;;;;2087646;28;20525;-76
2021/07/06 04:01:09;;;;;;;31.73;28.53;;;;;;;-144.27;100.00;69759.91;2087992;28;20218;-76
2021/07/06 04:02:11;;;;;;;31.43;28.17;;;;;;;-144.27;100.00;120563.97;2088397;28;20453;-76
2021/07/06 04:03:12;;;;;;;32.50;28.93;;;;;;;;;;2087687;28;20380;-76
2021/07/06 04:04:13;;;;;;;30.87;27.67;;;;;;;;;;2087777;28;20441;-76
2021/07/06 04:05:14;;;;;;;31.03;28.03;;;;;;;-144.27;100.00;69759.91;2088752;28;20233;-76
2021/07/06 04:06:16;;;;;;;31.70;28.40;;;;;;;;;;2089245;28;20507;-76
2021/07/06 04:07:16;;;;;;;30.60;27.53;;;;;;;;;;2089156;28;20875;-76
2021/07/06 04:08:18;;;;;;;29.97;27.00;;;;;;;;;;2090146;28;20560;-76
2021/07/06 04:09:19;;;;;;;30.83;27.53;;;;;;;22.43;100.00;69759.91;2089254;28;20677;-76
2021/07/06 04:10:21;;;;;;;31.00;27.83;;;;;;;-144.27;100.00;69759.91;2089456;28;20839;-76
2021/07/06 04:11:21;;;;;;;29.93;26.90;;;;;;;;;;2089292;28;20234;-75
2021/07/06 04:12:24;;;;;;;30.13;27.23;;;;;;;;;;2088886;28;20527;-76
2021/07/06 04:13:24;;;;;;;32.53;28.10;;;;;;;;;;2090144;28;20700;-78
2021/07/06 04:14:26;;;;;;;30.10;27.23;;;;;;;;;;2090104;28;20856;-76
2021/07/06 04:15:27;;;;;;;30.23;27.13;;;;;;;-144.27;100.00;69759.91;2089122;28;20289;-75
2021/07/06 04:16:28;;;;;;;31.00;27.80;;;;;;;;;;2089207;28;20492;-75
2021/07/06 04:17:29;;;;;;;33.27;27.40;;;;;;;;;;2089143;28;20222;-76
2021/07/06 04:18:30;;;;;;;30.23;27.33;;;;;;;;;;2080810;28;20512;-77
2021/07/06 04:19:31;;;;;;;30.77;27.87;;;;;;;;;;2081058;28;20265;-76
2021/07/06 04:20:33;;;;;;;30.13;27.17;;;;;;;;;;2081042;28;20442;-76
2021/07/06 04:21:34;;;;;;;29.90;27.00;;;;;;;-144.27;100.00;107915.94;2089368;28;20274;-75
2021/07/06 04:22:37;;;;;;;30.50;26.93;;;;;;;-144.27;100.00;91702.66;2090024;28;20433;-76
2021/07/06 04:23:38;;;;;;;32.67;27.07;;;;;;;;;;2088637;28;20495;-76
2021/07/06 04:24:39;;;;;;;30.00;26.60;;;;;;;;;;2089205;28;20457;-76
2021/07/06 04:25:40;;;;;;;30.10;27.20;;;;;;;;;;2089152;28;20546;-76
2021/07/06 04:26:42;;;;;;;29.90;26.73;;;;;;;-144.27;100.00;69759.91;2089300;28;20503;-75
2021/07/06 04:27:44;;;;;;;29.23;26.23;;;;;;;;;;2089471;28;20226;-75
2021/07/06 04:28:45;;;;;;;29.40;26.20;;;;;;;;;;2080881;28;20875;-76
2021/07/06 04:29:47;;;;;;;28.67;25.90;;;;;;;;;;2080927;28;20449;-76
2021/07/06 04:30:49;;;;;;;29.70;26.57;;;;;;;-144.27;100.00;69759.91;2089250;28;20974;-75
2021/07/06 04:31:50;;;;;;;29.60;26.80;;;;;;;;;;2089770;28;20461;-76
2021/07/06 04:32:52;;;;;;;28.17;25.13;;;;;;;;;;2089975;28;20449;-75
2021/07/06 04:33:52;;;;;;;27.27;24.60;;;;;;;-144.27;100.00;69759.91;2088631;28;20472;-75
2021/07/06 04:34:54;;;;;;;27.80;25.10;;;;;;;;;;2089168;28;20495;-76
2021/07/06 04:35:55;;;;;;;28.87;26.07;;;;;;;-144.27;100.00;91518.75;2089865;28;20708;-75
2021/07/06 04:36:56;;;;;;;28.93;25.83;;;;;;;;;;2089022;28;20798;-75
2021/07/06 04:37:57;;;;;;;27.93;25.13;;;;;;;;;;2080772;28;20247;-75
2021/07/06 04:38:58;;;;;;;28.63;25.90;;;;;;;;;;2088986;28;20442;-75
2021/07/06 04:40:00;;;;;;;29.33;26.57;;;;;;;;;;2089081;28;20219;-75
2021/07/06 04:41:01;;;;;;;28.77;26.00;;;;;;;;;;2088971;28;20491;-76
2021/07/06 04:42:02;;;;;;;29.03;26.23;;;;;;;;;;2089194;28;20453;-74
2021/07/06 04:43:06;;;;;;;28.73;25.93;;;;;;;;;;2089021;28;20487;-75
2021/07/06 04:44:06;;;;;;;29.73;26.73;;;;;;;-144.27;100.00;69759.91;2080664;28;20673;-76
2021/07/06 04:45:09;;;;;;;28.17;25.47;;;;;;;;;;2080726;28;20836;-76
2021/07/06 04:46:09;;;;;;;28.20;25.50;;;;;;;;;;2089045;28;20239;-75
2021/07/06 04:47:11;;;;;;;29.43;26.73;;;;;;;;;;2088996;28;20523;-75
2021/07/06 04:48:11;;;;;;;29.20;26.40;;;;;;;-144.27;0.00;69759.91;2080883;28;20700;-75
2021/07/06 04:49:13;;;;;;;29.27;26.37;;;;;;;-144.27;100.00;69759.91;2089023;28;20449;-76
2021/07/06 04:50:16;;;;;;;27.93;25.13;;;;;;;;;;2089260;28;20223;-76
2021/07/06 04:51:17;;;;;;;27.67;24.93;;;;;;;-144.27;100.00;69759.91;2080860;28;20458;-77
2021/07/06 04:52:18;;;;;;;27.40;24.70;;;;;;;;;;2081105;28;20446;-75
2021/07/06 04:53:22;;;;;;;28.20;24.97;;;;;;;;;;2089078;28;20453;-75
2021/07/06 04:54:23;;;;;;;27.63;24.73;;;;;;;;;;2082278;28;20223;-76
2021/07/06 04:55:25;;;;;;;28.60;25.67;;;;;;;-144.27;100.00;69759.91;2079097;28;20530;-75
2021/07/06 04:56:27;;;;;;;27.43;24.70;;;;;;;;;;2084224;28;20454;-75
2021/07/06 04:57:28;;;;;;;28.30;25.53;;;;;;;;;;2080691;28;20852;-75
2021/07/06 04:58:30;;;;;;;28.80;25.73;;;;;;;;;;2080810;28;20453;-76
2021/07/06 04:59:32;;;;;;;26.97;24.63;;;;;;;;;;2081574;28;21047;-76
2021/07/06 05:00:33;;;;;;;28.03;25.43;;;;;;;;;;2080552;28;20504;-76
2021/07/06 05:01:35;;;;;;;28.47;25.60;;;;;;;-144.27;87.27;69759.91;2080775;28;20499;-75
2021/07/06 05:02:35;;;;;;;27.70;25.20;;;;;;;-144.27;100.00;71982.44;2080555;28;20235;-76
2021/07/06 05:03:38;;;;;;;28.10;25.50;;;;;;;;;;2072549;28;20439;-75
2021/07/06 05:04:38;;;;;;;27.40;24.83;;;;;;;-144.27;100.00;69759.91;2080355;28;20224;-74
2021/07/06 05:05:40;;;;;;;28.03;25.37;;;;;;;;;;2080532;28;20474;-74
2021/07/06 05:06:41;;;;;;;27.30;24.63;;;;;;;;;;2080801;28;20223;-75
2021/07/06 05:07:42;;;;;;;26.93;24.53;;;;;;;;;;2080367;28;20478;-76
2021/07/06 05:08:43;;;;;;;26.83;24.40;;;;;;;;;;2072400;28;20701;-74
2021/07/06 05:09:44;;;;;;;28.13;24.67;;;;;;;;;;2080674;28;20854;-78
2021/07/06 05:10:45;;;;;;;25.80;23.43;;;;;;;;;;2081218;28;20223;-75
2021/07/06 05:11:47;;;;;;;26.83;24.23;;;;;;;-144.27;100.00;69759.91;2081409;28;20447;-75
2021/07/06 05:12:47;;;;;;;25.63;23.37;;;;;;;;;;2081232;28;20614;-77
2021/07/06 05:13:50;;;;;;;25.87;23.57;;;;;;;;;;2081141;28;20454;-75
2021/07/06 05:14:51;;;;;;;26.37;23.97;;;;;;;-144.27;100.00;69759.91;2081376;28;20252;-78
2021/07/06 05:15:53;;;;;;;26.20;23.80;;;;;;;-144.27;100.00;69759.91;2087016;28;20552;-77
2021/07/06 05:16:53;;;;;;;25.77;23.37;;;;;;;;;;2087865;28;20230;-76
2021/07/06 05:17:55;;;;;;;25.27;22.97;;;;;;;;;;2080538;28;20546;-75
2021/07/06 05:18:56;;;;;;;28.20;23.70;;;;;;;;;;2088925;28;20689;-75
2021/07/06 05:19:57;;;;;;;25.10;22.77;;;;;;;-144.27;100.00;69759.91;2088910;28;20803;-75
2021/07/06 05:20:58;;;;;;;25.77;23.37;;;;;;;;;;2088664;28;20219;-75
2021/07/06 05:22:00;;;;;;;25.90;23.50;;;;;;;-144.27;100.00;69759.91;2080590;28;20534;-75
2021/07/06 05:23:00;;;;;;;25.73;23.40;;;;;;;22.72;100.00;69759.91;2080625;28;20715;-75
2021/07/06 05:24:02;;;;;;;25.87;23.57;;;;;;;;;;2088918;28;20855;-75
2021/07/06 05:25:03;;;;;;;25.13;22.87;;;;;;;;;;2088761;28;20227;-75
2021/07/06 05:26:04;;;;;;;25.17;22.83;;;;;;;;;;2080756;28;20459;-75
2021/07/06 05:27:05;;;;;;;24.53;22.33;;;;;;;;;;2088846;28;20218;-74
2021/07/06 05:28:07;;;;;;;26.47;24.10;;;;;;;;;;2089591;28;20491;-74
2021/07/06 05:29:08;;;;;;;25.23;22.57;;;;;;;;;;2088453;28;20301;-75
2021/07/06 05:30:11;;;;;;;26.10;23.63;;;;;;;;;;2088934;28;20791;-75
2021/07/06 05:31:11;;;;;;;25.03;22.73;;;;;;;;;;2088805;28;26678;-74
2021/07/06 05:32:13;;;;;;;24.67;22.30;;;;;;;;;;2088801;28;20481;-75
2021/07/06 05:33:13;;;;;;;24.40;22.40;;;;;;;;;;2089071;28;20222;-75
2021/07/06 05:34:15;;;;;;;24.60;22.40;;;;;;;;;;2088722;28;20438;-74